createdAt,value
2023-05-23T00:01:32.199Z,99.90
2023-05-23T00:03:59.246Z,99.90
2023-05-23T00:06:26.970Z,99.90
2023-05-23T00:08:54.194Z,99.90
2023-05-23T00:11:24.147Z,99.90
2023-05-23T00:13:51.435Z,99.90
2023-05-23T00:16:18.456Z,99.90
2023-05-23T00:18:46.011Z,99.90
2023-05-23T00:21:16.098Z,99.90
2023-05-23T00:23:43.366Z,99.90
2023-05-23T00:26:11.054Z,99.90
2023-05-23T00:28:41.252Z,99.90
2023-05-23T00:31:08.283Z,99.90
2023-05-23T00:33:36.333Z,99.90
2023-05-23T00:36:03.511Z,99.90
2023-05-23T00:38:30.663Z,99.90
2023-05-23T00:40:57.563Z,99.90
2023-05-23T00:43:25.799Z,99.90
2023-05-23T00:45:52.766Z,99.90
2023-05-23T00:48:19.867Z,99.90
2023-05-23T00:50:46.950Z,99.90
2023-05-23T00:53:14.004Z,99.90
2023-05-23T00:55:41.340Z,99.90
2023-05-23T00:58:08.550Z,99.90
2023-05-23T01:00:35.930Z,99.90
2023-05-23T01:03:03.300Z,99.90
2023-05-23T01:05:30.507Z,99.90
2023-05-23T01:07:57.396Z,99.90
2023-05-23T01:10:27.246Z,99.90
2023-05-23T01:13:22.553Z,99.90
2023-05-23T01:16:05.150Z,99.90
2023-05-23T01:18:41.518Z,99.90
2023-05-23T01:21:17.332Z,99.90
2023-05-23T01:24:13.021Z,99.90
2023-05-23T01:27:07.585Z,99.90
2023-05-23T01:29:46.273Z,99.90
2023-05-23T01:32:15.953Z,99.90
2023-05-23T01:34:45.981Z,99.90
2023-05-23T01:37:16.318Z,99.90
2023-05-23T01:39:43.268Z,99.90
2023-05-23T01:42:10.455Z,99.90
2023-05-23T01:44:38.547Z,99.90
2023-05-23T01:47:09.755Z,99.90
2023-05-23T01:49:37.970Z,99.90
2023-05-23T01:52:06.234Z,99.90
2023-05-23T01:54:35.539Z,99.90
2023-05-23T01:57:03.116Z,99.90
2023-05-23T01:59:30.104Z,99.90
2023-05-23T02:01:58.030Z,99.90
2023-05-23T02:04:25.282Z,99.90
2023-05-23T02:06:52.141Z,99.90
2023-05-23T02:09:19.121Z,99.90
2023-05-23T02:11:46.302Z,99.90
2023-05-23T02:14:13.538Z,99.90
2023-05-23T02:16:40.496Z,99.90
2023-05-23T02:19:07.660Z,99.90
2023-05-23T02:21:35.461Z,99.90
2023-05-23T02:24:03.796Z,99.90
2023-05-23T02:26:31.115Z,99.90
2023-05-23T02:28:58.032Z,99.90
2023-05-23T02:31:25.143Z,99.90
2023-05-23T02:33:52.283Z,99.90
2023-05-23T02:36:19.980Z,99.90
2023-05-23T02:38:46.897Z,99.90
2023-05-23T02:41:14.068Z,99.90
2023-05-23T02:43:41.029Z,99.90
2023-05-23T02:46:08.192Z,99.90
2023-05-23T02:48:40.888Z,99.90
2023-05-23T02:51:07.993Z,99.90
2023-05-23T02:53:34.992Z,99.90
2023-05-23T02:56:02.132Z,99.90
2023-05-23T02:58:30.077Z,99.90
2023-05-23T03:00:57.170Z,99.90
2023-05-23T03:03:24.208Z,99.90
2023-05-23T03:05:51.640Z,99.90
2023-05-23T03:08:18.732Z,99.90
2023-05-23T03:10:45.768Z,99.90
2023-05-23T03:13:12.976Z,99.90
2023-05-23T03:15:42.340Z,99.90
2023-05-23T03:18:09.571Z,99.90
2023-05-23T03:20:36.876Z,99.90
2023-05-23T03:23:04.064Z,99.90
2023-05-23T03:25:31.061Z,99.90
2023-05-23T03:27:58.298Z,99.90
2023-05-23T03:30:25.820Z,99.90
2023-05-23T03:32:53.916Z,99.90
2023-05-23T03:35:21.212Z,99.90
2023-05-23T03:37:48.193Z,99.90
2023-05-23T03:40:16.714Z,99.90
2023-05-23T03:42:44.716Z,99.90
2023-05-23T03:45:12.378Z,99.90
2023-05-23T03:47:39.590Z,99.90
2023-05-23T03:50:07.711Z,99.90
2023-05-23T03:52:35.757Z,99.90
2023-05-23T03:55:03.430Z,99.90
2023-05-23T03:57:31.202Z,99.90
2023-05-23T03:59:58.440Z,99.90
2023-05-23T04:02:26.378Z,99.90
2023-05-23T04:04:57.134Z,99.90
2023-05-23T04:07:26.668Z,99.90
2023-05-23T04:09:53.742Z,99.90
2023-05-23T04:12:22.282Z,99.90
2023-05-23T04:14:50.497Z,99.90
2023-05-23T04:17:18.622Z,99.90
2023-05-23T04:19:45.748Z,99.90
2023-05-23T04:22:12.712Z,99.90
2023-05-23T04:24:39.740Z,99.90
2023-05-23T04:27:08.261Z,99.90
2023-05-23T04:29:36.092Z,99.90
2023-05-23T04:32:03.203Z,99.90
2023-05-23T04:34:31.061Z,99.90
2023-05-23T04:36:58.466Z,99.90
2023-05-23T04:39:28.451Z,99.90
2023-05-23T04:42:33.826Z,99.90
2023-05-23T04:45:19.598Z,99.90
2023-05-23T04:48:03.054Z,99.90
2023-05-23T04:50:40.712Z,99.90
2023-05-23T04:53:07.810Z,99.90
2023-05-23T04:55:36.316Z,99.90
2023-05-23T04:58:03.748Z,99.90
2023-05-23T05:00:30.940Z,99.90
2023-05-23T05:02:57.965Z,99.90
2023-05-23T05:05:28.527Z,99.90
2023-05-23T05:07:55.613Z,99.90
2023-05-23T05:10:22.551Z,99.90
2023-05-23T05:12:54.619Z,99.90
2023-05-23T05:15:22.208Z,99.90
2023-05-23T05:17:53.804Z,99.90
2023-05-23T05:20:22.499Z,99.90
2023-05-23T05:22:58.492Z,99.90
2023-05-23T05:25:27.415Z,99.90
2023-05-23T05:27:54.323Z,99.90
2023-05-23T05:30:22.226Z,99.90
2023-05-23T05:32:53.201Z,99.90
2023-05-23T05:35:21.166Z,99.90
2023-05-23T05:37:48.612Z,99.90
2023-05-23T05:40:15.687Z,99.90
2023-05-23T05:42:43.237Z,99.90
2023-05-23T05:45:11.570Z,99.90
2023-05-23T05:47:40.073Z,99.90
2023-05-23T05:50:08.864Z,99.90
2023-05-23T05:52:39.970Z,99.90
2023-05-23T05:55:11.748Z,99.90
2023-05-23T05:57:41.486Z,99.90
2023-05-23T06:00:19.326Z,99.90
2023-05-23T06:02:51.848Z,99.90
2023-05-23T06:05:32.265Z,99.90
2023-05-23T06:08:00.669Z,99.90
2023-05-23T06:10:27.528Z,99.90
2023-05-23T06:12:55.755Z,99.90
2023-05-23T06:15:22.737Z,99.90
2023-05-23T06:17:49.654Z,99.90
2023-05-23T06:20:16.619Z,99.90
2023-05-23T06:22:45.452Z,99.90
2023-05-23T06:25:13.050Z,99.90
2023-05-23T06:27:39.991Z,99.90
2023-05-23T06:30:07.444Z,99.90
2023-05-23T06:32:34.322Z,99.90
2023-05-23T06:35:01.265Z,99.90
2023-05-23T06:37:28.424Z,99.90
2023-05-23T06:39:56.786Z,99.90
2023-05-23T06:42:23.707Z,99.90
2023-05-23T06:45:05.056Z,99.90
2023-05-23T06:47:32.648Z,99.90
2023-05-23T06:49:59.657Z,99.90
2023-05-23T06:52:26.523Z,99.90
2023-05-23T06:54:53.478Z,99.90
2023-05-23T06:57:20.734Z,99.90
2023-05-23T06:59:47.663Z,99.90
2023-05-23T07:02:15.509Z,99.90
2023-05-23T07:04:42.570Z,99.90
2023-05-23T07:07:16.811Z,99.90
2023-05-23T07:09:44.575Z,99.90
2023-05-23T07:12:16.924Z,99.90
2023-05-23T07:14:46.293Z,99.90
2023-05-23T07:17:14.480Z,99.90
2023-05-23T07:19:41.751Z,99.90
2023-05-23T07:22:08.701Z,99.90
2023-05-23T07:24:38.572Z,99.90
2023-05-23T07:27:06.720Z,99.90
2023-05-23T07:29:36.320Z,99.90
2023-05-23T07:32:03.217Z,99.90
2023-05-23T07:34:30.839Z,99.90
2023-05-23T07:37:01.269Z,99.90
2023-05-23T07:39:34.288Z,99.90
2023-05-23T07:42:01.728Z,99.90
2023-05-23T07:44:29.208Z,99.90
2023-05-23T07:46:56.381Z,99.90
2023-05-23T07:49:24.288Z,99.90
2023-05-23T07:51:51.311Z,99.90
2023-05-23T07:54:18.318Z,99.90
2023-05-23T07:56:45.479Z,99.90
2023-05-23T07:59:13.423Z,99.90
2023-05-23T08:01:42.357Z,99.90
2023-05-23T08:04:13.345Z,99.90
2023-05-23T08:07:05.398Z,99.90
2023-05-23T08:09:42.735Z,99.90
2023-05-23T08:12:13.092Z,99.90
2023-05-23T08:14:50.836Z,99.90
2023-05-23T08:17:24.163Z,99.90
2023-05-23T08:19:52.296Z,99.90
2023-05-23T08:22:19.296Z,99.90
2023-05-23T08:24:46.220Z,99.90
2023-05-23T08:27:13.490Z,99.90
2023-05-23T08:29:41.355Z,99.90
2023-05-23T08:32:08.887Z,99.90
2023-05-23T08:34:35.839Z,99.90
2023-05-23T08:37:03.615Z,99.90
2023-05-23T08:39:30.719Z,99.90
2023-05-23T08:42:16.344Z,99.90
2023-05-23T08:44:44.071Z,99.90
2023-05-23T08:47:12.870Z,99.90
2023-05-23T08:49:49.121Z,99.90
2023-05-23T08:52:22.191Z,99.90
2023-05-23T08:54:51.036Z,99.90
2023-05-23T08:57:17.995Z,99.90
2023-05-23T08:59:51.867Z,99.90
2023-05-23T09:02:20.186Z,99.90
2023-05-23T09:04:49.120Z,99.90
2023-05-23T09:07:21.392Z,99.90
2023-05-23T09:09:50.176Z,99.90
2023-05-23T09:12:17.712Z,99.90
2023-05-23T09:14:47.170Z,99.90
2023-05-23T09:17:20.902Z,99.90
2023-05-23T09:19:48.270Z,99.90
2023-05-23T09:22:27.553Z,99.90
2023-05-23T09:25:02.513Z,99.90
2023-05-23T09:27:31.130Z,99.90
2023-05-23T09:29:58.448Z,99.90
2023-05-23T09:32:28.159Z,99.90
2023-05-23T09:34:57.088Z,99.90
2023-05-23T09:37:31.249Z,99.90
2023-05-23T09:40:06.597Z,99.90
2023-05-23T09:42:34.376Z,99.90
2023-05-23T09:45:04.092Z,99.90
2023-05-23T09:47:31.836Z,99.90
2023-05-23T09:49:59.137Z,99.90
2023-05-23T09:52:27.039Z,99.90
2023-05-23T09:54:54.789Z,99.90
2023-05-23T09:57:23.565Z,99.90
2023-05-23T09:59:54.765Z,99.90
2023-05-23T10:02:59.359Z,99.90
2023-05-23T10:05:38.495Z,99.90
2023-05-23T10:08:11.359Z,99.90
2023-05-23T10:10:58.245Z,99.90
2023-05-23T10:13:29.310Z,99.90
2023-05-23T10:16:02.913Z,99.90
2023-05-23T10:18:34.621Z,99.90
2023-05-23T10:21:07.060Z,99.90
2023-05-23T10:23:34.524Z,99.90
2023-05-23T10:26:01.757Z,99.90
2023-05-23T10:28:28.884Z,99.90
2023-05-23T10:30:56.071Z,99.90
2023-05-23T10:33:24.125Z,99.90
2023-05-23T10:36:14.910Z,99.90
2023-05-23T10:38:51.703Z,99.90
2023-05-23T10:41:27.503Z,99.90
2023-05-23T10:44:09.617Z,99.90
2023-05-23T10:46:58.229Z,99.90
2023-05-23T10:49:39.303Z,99.90
2023-05-23T10:52:07.571Z,99.90
2023-05-23T10:54:54.697Z,99.90
2023-05-23T10:57:25.780Z,99.90
2023-05-23T10:59:53.120Z,99.90
2023-05-23T11:02:26.697Z,99.90
2023-05-23T11:05:20.746Z,99.90
2023-05-23T11:08:06.388Z,99.90
2023-05-23T11:10:33.446Z,99.90
2023-05-23T11:13:08.104Z,99.90
2023-05-23T11:15:45.749Z,99.90
2023-05-23T11:18:22.206Z,99.90
2023-05-23T11:20:54.513Z,99.90
2023-05-23T11:23:22.638Z,99.90
2023-05-23T11:25:55.479Z,99.90
2023-05-23T11:28:24.086Z,99.90
2023-05-23T11:30:51.183Z,99.90
2023-05-23T11:33:18.656Z,99.90
2023-05-23T11:35:47.957Z,99.90
2023-05-23T11:38:16.744Z,99.90
2023-05-23T11:40:47.652Z,99.90
2023-05-23T11:43:16.851Z,99.90
2023-05-23T11:45:46.893Z,99.90
2023-05-23T11:48:16.670Z,99.90
2023-05-23T11:50:54.316Z,99.90
2023-05-23T11:53:25.855Z,99.90
2023-05-23T11:55:55.394Z,99.90
2023-05-23T11:58:26.389Z,99.90
2023-05-23T12:00:58.300Z,99.90
2023-05-23T12:03:25.271Z,99.90
2023-05-23T12:05:52.558Z,99.90
2023-05-23T12:08:19.560Z,99.90
2023-05-23T12:11:04.687Z,99.90
2023-05-23T12:13:31.769Z,99.90
2023-05-23T12:16:01.220Z,99.90
2023-05-23T12:18:30.256Z,99.90
2023-05-23T12:21:05.910Z,99.90
2023-05-23T12:23:34.974Z,99.90
2023-05-23T12:26:05.772Z,99.90
2023-05-23T12:28:41.031Z,99.90
2023-05-23T12:31:32.236Z,99.90
2023-05-23T12:33:59.801Z,99.90
2023-05-23T12:36:32.226Z,99.90
2023-05-23T12:39:04.108Z,99.90
2023-05-23T12:41:32.952Z,99.90
2023-05-23T12:43:59.898Z,99.90
2023-05-23T12:46:27.330Z,99.90
2023-05-23T12:48:54.870Z,99.90
2023-05-23T12:51:21.948Z,99.90
2023-05-23T12:53:48.999Z,99.90
2023-05-23T12:56:15.937Z,99.90
2023-05-23T12:58:43.618Z,99.90
2023-05-23T13:01:11.378Z,99.90
2023-05-23T13:03:38.444Z,99.90
2023-05-23T13:06:05.786Z,99.90
2023-05-23T13:08:32.952Z,99.90
2023-05-23T13:11:00.022Z,99.90
2023-05-23T13:13:26.970Z,99.90
2023-05-23T13:15:54.188Z,99.90
2023-05-23T13:18:21.233Z,99.90
2023-05-23T13:20:48.118Z,99.90
2023-05-23T13:23:15.139Z,99.90
2023-05-23T13:25:42.244Z,99.90
2023-05-23T13:28:09.611Z,99.90
2023-05-23T13:30:36.931Z,99.90
2023-05-23T13:33:05.090Z,99.90
2023-05-23T13:35:32.069Z,99.90
2023-05-23T13:37:59.075Z,99.90
2023-05-23T13:40:26.303Z,99.90
2023-05-23T13:42:53.234Z,99.90
2023-05-23T13:45:22.818Z,99.90
2023-05-23T13:47:50.021Z,99.90
2023-05-23T13:50:17.289Z,99.90
2023-05-23T13:52:47.226Z,99.90
2023-05-23T13:55:16.631Z,99.90
2023-05-23T13:57:43.552Z,99.90
2023-05-23T14:00:11.625Z,99.90
2023-05-23T14:02:38.485Z,99.90
2023-05-23T14:05:07.346Z,99.90
2023-05-23T14:07:34.402Z,99.90
2023-05-23T14:10:01.455Z,99.90
2023-05-23T14:12:28.273Z,99.90
2023-05-23T14:14:55.130Z,99.90
2023-05-23T14:17:23.057Z,99.90
2023-05-23T14:19:50.620Z,99.90
2023-05-23T14:22:17.592Z,99.90
2023-05-23T14:24:44.645Z,99.90
2023-05-23T14:27:11.704Z,99.90
2023-05-23T14:29:39.120Z,99.90
2023-05-23T14:32:06.538Z,99.90
2023-05-23T14:34:33.659Z,99.90
2023-05-23T14:37:01.330Z,99.90
2023-05-23T14:39:29.312Z,99.90
2023-05-23T14:41:56.598Z,99.90
2023-05-23T14:44:23.718Z,99.90
2023-05-23T14:46:50.800Z,99.90
2023-05-23T14:49:17.938Z,99.90
2023-05-23T14:51:50.386Z,99.90
2023-05-23T14:54:18.622Z,99.90
2023-05-23T14:56:45.705Z,99.90
2023-05-23T14:59:12.868Z,99.90
2023-05-23T15:01:40.715Z,99.90
2023-05-23T15:04:09.633Z,99.90
2023-05-23T15:06:38.164Z,99.90
2023-05-23T15:09:05.439Z,99.90
2023-05-23T15:11:33.230Z,99.90
2023-05-23T15:14:00.274Z,99.90
2023-05-23T15:16:32.451Z,99.90
2023-05-23T15:19:00.190Z,99.90
2023-05-23T15:21:27.296Z,99.90
2023-05-23T15:23:54.733Z,99.90
2023-05-23T15:26:22.191Z,99.90
2023-05-23T15:28:49.068Z,99.90
2023-05-23T15:31:16.081Z,99.90
2023-05-23T15:33:43.139Z,99.90
2023-05-23T15:36:10.125Z,99.90
2023-05-23T15:38:37.122Z,99.90
2023-05-23T15:41:04.963Z,99.90
2023-05-23T15:43:32.818Z,99.90
2023-05-23T15:46:00.642Z,99.90
2023-05-23T15:48:27.665Z,99.90
2023-05-23T15:50:54.685Z,99.90
2023-05-23T15:53:21.668Z,99.90
2023-05-23T15:55:48.568Z,99.90
2023-05-23T15:58:15.680Z,99.90
2023-05-23T16:00:42.911Z,99.90
2023-05-23T16:03:10.055Z,99.90
2023-05-23T16:05:37.032Z,99.90
2023-05-23T16:08:04.148Z,99.90
2023-05-23T16:10:31.169Z,99.90
2023-05-23T16:12:58.029Z,99.90
2023-05-23T16:15:25.094Z,99.90
2023-05-23T16:17:53.783Z,99.90
2023-05-23T16:20:20.733Z,99.90
2023-05-23T16:22:48.324Z,99.10
2023-05-23T16:25:15.398Z,99.30
2023-05-23T16:27:42.337Z,98.90
2023-05-23T16:30:09.985Z,99.30
2023-05-23T16:32:37.089Z,98.80
2023-05-23T16:35:04.353Z,99.20
2023-05-23T16:37:31.440Z,99.80
2023-05-23T16:39:58.526Z,99.90
2023-05-23T16:42:25.463Z,99.90
2023-05-23T16:44:53.121Z,99.90
2023-05-23T16:47:20.166Z,99.90
2023-05-23T16:49:47.052Z,99.80
2023-05-23T16:52:14.476Z,99.90
2023-05-23T16:54:41.376Z,99.90
2023-05-23T16:57:08.238Z,99.90
2023-05-23T16:59:35.180Z,99.90
2023-05-23T17:02:02.639Z,99.90
2023-05-23T17:04:29.587Z,99.90
2023-05-23T17:06:56.487Z,99.90
2023-05-23T17:09:23.473Z,99.90
2023-05-23T17:11:51.020Z,99.90
2023-05-23T17:14:18.085Z,99.90
2023-05-23T17:16:45.004Z,99.90
2023-05-23T17:19:12.131Z,99.90
2023-05-23T17:21:39.135Z,99.80
2023-05-23T17:24:06.149Z,99.50
2023-05-23T17:26:33.269Z,99.40
2023-05-23T17:29:00.258Z,99.20
2023-05-23T17:31:29.014Z,99.40
2023-05-23T17:33:57.898Z,99.50
2023-05-23T17:36:25.185Z,99.00
2023-05-23T17:38:54.846Z,98.60
2023-05-23T17:41:24.727Z,98.70
2023-05-23T17:43:51.630Z,98.90
2023-05-23T17:46:18.568Z,98.60
2023-05-23T17:48:47.497Z,98.10
2023-05-23T17:51:16.234Z,98.60
2023-05-23T17:53:43.447Z,98.40
2023-05-23T17:56:10.852Z,98.40
2023-05-23T17:58:39.198Z,98.40
2023-05-23T18:01:07.607Z,98.60
2023-05-23T18:03:34.606Z,98.30
2023-05-23T18:06:01.498Z,98.50
2023-05-23T18:08:28.482Z,98.70
2023-05-23T18:10:55.578Z,98.80
2023-05-23T18:13:22.706Z,98.80
2023-05-23T18:15:49.761Z,98.50
2023-05-23T18:18:18.074Z,98.30
2023-05-23T18:20:45.392Z,98.20
2023-05-23T18:23:12.686Z,98.20
2023-05-23T18:25:39.646Z,98.20
2023-05-23T18:28:06.652Z,98.20
2023-05-23T18:30:33.622Z,98.20
2023-05-23T18:33:01.039Z,98.20
2023-05-23T18:35:28.298Z,98.50
2023-05-23T18:37:55.484Z,98.40
2023-05-23T18:40:24.258Z,98.20
2023-05-23T18:42:51.497Z,98.40
2023-05-23T18:45:18.507Z,98.50
2023-05-23T18:47:45.545Z,98.50
2023-05-23T18:50:13.318Z,98.30
2023-05-23T18:52:40.675Z,98.40
2023-05-23T18:55:08.236Z,98.80
2023-05-23T18:57:35.209Z,98.40
2023-05-23T19:00:04.135Z,98.40
2023-05-23T19:02:31.616Z,98.20
2023-05-23T19:04:58.536Z,98.10
2023-05-23T19:07:25.761Z,98.30
2023-05-23T19:09:52.708Z,97.90
2023-05-23T19:12:19.864Z,98.00
2023-05-23T19:14:47.118Z,98.10
2023-05-23T19:17:15.492Z,98.10
2023-05-23T19:19:42.549Z,98.00
2023-05-23T19:22:09.674Z,97.80
2023-05-23T19:24:37.629Z,97.90
2023-05-23T19:27:05.013Z,97.80
2023-05-23T19:29:31.913Z,97.50
2023-05-23T19:31:59.084Z,97.90
2023-05-23T19:34:26.429Z,97.60
2023-05-23T19:36:53.441Z,98.00
2023-05-23T19:39:20.566Z,97.80
2023-05-23T19:41:47.522Z,98.20
2023-05-23T19:44:14.717Z,98.40
2023-05-23T19:46:41.643Z,98.30
2023-05-23T19:49:08.908Z,98.30
2023-05-23T19:51:36.893Z,98.40
2023-05-23T19:54:03.983Z,98.20
2023-05-23T19:56:30.959Z,98.40
2023-05-23T19:58:57.831Z,98.50
2023-05-23T20:01:24.940Z,98.60
2023-05-23T20:03:52.366Z,98.70
2023-05-23T20:06:20.725Z,98.90
2023-05-23T20:08:47.837Z,98.90
2023-05-23T20:11:14.973Z,99.10
2023-05-23T20:13:41.876Z,99.30
2023-05-23T20:16:09.068Z,99.10
2023-05-23T20:18:36.281Z,99.30
2023-05-23T20:21:05.148Z,99.60
2023-05-23T20:23:32.508Z,99.90
2023-05-23T20:26:00.370Z,99.90
2023-05-23T20:28:27.768Z,99.90
2023-05-23T20:30:54.893Z,99.90
2023-05-23T20:33:21.972Z,99.90
2023-05-23T20:35:48.999Z,99.90
2023-05-23T20:38:18.688Z,99.90
2023-05-23T20:40:46.427Z,99.90
2023-05-23T20:43:15.117Z,99.90
2023-05-23T20:45:42.547Z,99.90
2023-05-23T20:48:09.586Z,99.90
2023-05-23T20:50:37.007Z,99.90
2023-05-23T20:53:04.070Z,99.90
2023-05-23T20:55:30.952Z,99.90
2023-05-23T20:57:57.892Z,99.90
2023-05-23T21:00:24.858Z,99.90
2023-05-23T21:02:52.010Z,99.90
2023-05-23T21:05:18.980Z,99.90
2023-05-23T21:07:46.049Z,99.90
2023-05-23T21:10:12.946Z,99.90
2023-05-23T21:12:41.373Z,99.90
2023-05-23T21:15:09.846Z,99.90
2023-05-23T21:17:37.643Z,99.90
2023-05-23T21:20:05.636Z,99.90
2023-05-23T21:22:32.706Z,99.90
2023-05-23T21:24:59.535Z,99.90
2023-05-23T21:27:27.062Z,99.90
2023-05-23T21:29:53.998Z,99.90
2023-05-23T21:32:21.380Z,99.90
2023-05-23T21:34:48.360Z,99.90
2023-05-23T21:37:15.714Z,99.90
2023-05-23T21:39:51.263Z,99.90
2023-05-23T21:42:21.070Z,99.90
2023-05-23T21:44:48.169Z,99.90
2023-05-23T21:47:15.135Z,99.90
2023-05-23T21:49:42.859Z,99.90
2023-05-23T21:52:09.814Z,99.90
2023-05-23T21:54:36.642Z,99.90
2023-05-23T21:57:03.620Z,99.90
2023-05-23T21:59:30.647Z,99.90
2023-05-23T22:01:57.625Z,99.90
2023-05-23T22:04:24.773Z,99.90
2023-05-23T22:06:52.045Z,99.90
2023-05-23T22:09:18.964Z,99.90
2023-05-23T22:11:46.231Z,99.90
2023-05-23T22:14:13.235Z,99.90
2023-05-23T22:16:40.214Z,99.90
2023-05-23T22:19:09.017Z,99.90
2023-05-23T22:21:36.886Z,99.90
2023-05-23T22:24:04.196Z,99.90
2023-05-23T22:26:31.259Z,99.90
2023-05-23T22:28:58.168Z,99.90
2023-05-23T22:31:25.271Z,99.90
2023-05-23T22:33:52.530Z,99.90
2023-05-23T22:36:19.436Z,99.90
2023-05-23T22:38:46.510Z,99.90
2023-05-23T22:41:13.471Z,99.90
2023-05-23T22:43:41.728Z,99.90
2023-05-23T22:46:09.303Z,99.90
2023-05-23T22:48:36.699Z,99.90
2023-05-23T22:51:04.089Z,99.90
2023-05-23T22:53:31.186Z,99.90
2023-05-23T22:55:58.199Z,99.90
2023-05-23T22:58:25.109Z,99.90
2023-05-23T23:00:52.241Z,99.90
2023-05-23T23:03:19.483Z,99.90
2023-05-23T23:05:46.585Z,99.90
2023-05-23T23:08:13.588Z,99.90
2023-05-23T23:10:41.957Z,99.90
2023-05-23T23:13:09.271Z,99.90
2023-05-23T23:15:36.707Z,99.90
2023-05-23T23:18:05.936Z,99.90
2023-05-23T23:20:33.342Z,99.90
2023-05-23T23:23:00.690Z,99.90
2023-05-23T23:25:27.585Z,99.90
2023-05-23T23:27:54.478Z,99.90
2023-05-23T23:30:21.545Z,99.90
2023-05-23T23:32:48.546Z,99.90
2023-05-23T23:35:15.604Z,99.90
2023-05-23T23:37:42.497Z,99.90
2023-05-23T23:40:10.036Z,99.90
2023-05-23T23:42:37.018Z,99.90
2023-05-23T23:45:04.774Z,99.90
2023-05-23T23:47:32.856Z,99.90
2023-05-23T23:49:59.691Z,99.90
2023-05-23T23:52:28.271Z,99.90
2023-05-23T23:54:55.258Z,99.90
2023-05-23T23:57:22.074Z,99.90
2023-05-23T23:59:49.021Z,99.90
